createdAt,value
2018-12-26T00:03:34.411Z,6.30
2018-12-26T00:09:11.614Z,6.30
2018-12-26T00:14:50.257Z,6.30
2018-12-26T00:17:39.632Z,6.30
2018-12-26T00:20:22.138Z,6.30
2018-12-26T00:26:01.751Z,6.30
2018-12-26T00:34:37.237Z,6.20
2018-12-26T00:37:26.601Z,6.10
2018-12-26T00:40:08.383Z,6.10
2018-12-26T00:42:58.036Z,6.20
2018-12-26T00:45:39.899Z,6.20
2018-12-26T00:48:30.148Z,6.20
2018-12-26T00:54:08.874Z,6.10
2018-12-26T00:56:39.446Z,6.10
2018-12-26T01:05:15.099Z,6.10
2018-12-26T01:11:08.692Z,6.10
2018-12-26T01:13:50.708Z,6.10
2018-12-26T01:19:28.578Z,6.00
2018-12-26T01:25:07.941Z,6.00
2018-12-26T01:27:57.657Z,6.10
2018-12-26T01:30:39.756Z,6.00
2018-12-26T01:33:29.139Z,6.00
2018-12-26T01:36:10.752Z,6.10
2018-12-26T01:44:48.918Z,6.00
2018-12-26T01:50:39.559Z,6.00
2018-12-26T01:53:21.963Z,6.00
2018-12-26T01:56:11.351Z,6.00
2018-12-26T01:58:53.103Z,6.00
2018-12-26T02:01:42.499Z,6.00
2018-12-26T02:04:25.257Z,6.00
2018-12-26T02:10:03.359Z,6.00
2018-12-26T02:15:41.362Z,6.00
2018-12-26T02:18:30.785Z,6.00
2018-12-26T02:21:13.554Z,5.90
2018-12-26T02:24:03.219Z,5.90
2018-12-26T02:29:42.047Z,6.00
2018-12-26T02:32:24.146Z,6.00
2018-12-26T02:38:00.303Z,6.00
2018-12-26T02:40:49.723Z,6.00
2018-12-26T02:43:34.237Z,6.00
2018-12-26T02:46:23.633Z,6.00
2018-12-26T02:54:55.866Z,6.00
2018-12-26T02:57:45.549Z,6.00
2018-12-26T03:00:27.907Z,6.00
2018-12-26T03:03:17.300Z,6.00
2018-12-26T03:05:59.323Z,6.00
2018-12-26T03:08:48.750Z,6.00
2018-12-26T03:11:36.972Z,6.00
2018-12-26T03:14:19.054Z,6.00
2018-12-26T03:20:09.207Z,6.00
2018-12-26T03:26:00.116Z,6.00
2018-12-26T03:28:49.836Z,6.00
2018-12-26T03:31:32.162Z,6.00
2018-12-26T03:37:22.463Z,6.00
2018-12-26T03:40:12.086Z,6.00
2018-12-26T03:42:53.795Z,6.00
2018-12-26T03:48:45.060Z,6.10
2018-12-26T03:51:34.557Z,6.10
2018-12-26T03:54:16.518Z,6.00
2018-12-26T03:57:05.775Z,6.00
2018-12-26T04:02:37.625Z,6.10
2018-12-26T04:08:14.386Z,6.10
2018-12-26T04:13:51.886Z,6.00
2018-12-26T04:16:41.385Z,6.00
2018-12-26T04:19:23.958Z,6.10
2018-12-26T04:25:02.807Z,6.10
2018-12-26T04:30:39.922Z,6.10
2018-12-26T04:33:29.321Z,6.10
2018-12-26T04:36:11.672Z,6.10
2018-12-26T04:39:01.007Z,6.10
2018-12-26T04:41:42.828Z,6.10
2018-12-26T04:47:21.092Z,6.10
2018-12-26T04:50:10.447Z,6.10
2018-12-26T04:52:52.256Z,6.10
2018-12-26T04:55:37.783Z,6.10
2018-12-26T05:01:27.889Z,6.20
2018-12-26T05:07:22.783Z,6.20
2018-12-26T05:16:00.292Z,6.20
2018-12-26T05:21:36.906Z,6.20
2018-12-26T05:24:26.411Z,6.20
2018-12-26T05:27:08.053Z,6.20
2018-12-26T05:29:57.463Z,6.20
2018-12-26T05:32:40.072Z,6.20
2018-12-26T05:38:17.306Z,6.20
2018-12-26T05:41:07.185Z,6.20
2018-12-26T05:43:49.226Z,6.20
2018-12-26T05:46:38.609Z,6.20
2018-12-26T05:49:20.934Z,6.30
2018-12-26T05:52:29.286Z,6.30
2018-12-26T05:55:11.775Z,6.20
2018-12-26T05:57:54.192Z,6.30
2018-12-26T06:00:43.813Z,6.30
2018-12-26T06:03:26.309Z,6.30
2018-12-26T06:06:15.802Z,6.30
2018-12-26T06:08:57.804Z,6.30
2018-12-26T06:14:53.233Z,6.30
2018-12-26T06:17:42.888Z,6.30
2018-12-26T06:20:24.937Z,6.30
2018-12-26T06:26:15.455Z,6.40
2018-12-26T06:29:04.782Z,6.40
2018-12-26T06:31:46.754Z,6.40
2018-12-26T06:34:36.081Z,6.40
2018-12-26T06:37:18.526Z,6.40
2018-12-26T06:40:07.816Z,6.40
2018-12-26T06:42:52.036Z,6.40
2018-12-26T06:45:41.394Z,6.40
2018-12-26T06:48:23.538Z,6.40
2018-12-26T06:54:13.544Z,6.40
2018-12-26T06:56:55.831Z,6.40
2018-12-26T07:02:34.361Z,6.40
2018-12-26T07:05:23.872Z,6.40
2018-12-26T07:08:05.885Z,6.40
2018-12-26T07:13:44.881Z,6.40
2018-12-26T07:19:22.907Z,6.40
2018-12-26T07:22:12.581Z,6.50
2018-12-26T07:24:54.792Z,6.50
2018-12-26T07:30:32.156Z,6.50
2018-12-26T07:33:21.827Z,6.50
2018-12-26T07:36:03.508Z,6.50
2018-12-26T07:38:33.816Z,6.50
2018-12-26T07:41:23.252Z,6.60
2018-12-26T07:44:12.628Z,6.50
2018-12-26T07:49:47.835Z,6.60
2018-12-26T07:55:39.862Z,6.60
2018-12-26T07:58:22.378Z,6.60
2018-12-26T08:01:08.372Z,6.60
2018-12-26T08:06:59.524Z,6.70
2018-12-26T08:09:48.879Z,6.70
2018-12-26T08:12:30.794Z,6.70
2018-12-26T08:18:25.389Z,6.70
2018-12-26T08:21:14.755Z,6.70
2018-12-26T08:23:57.350Z,6.70
2018-12-26T08:26:46.989Z,6.70
2018-12-26T08:29:32.913Z,6.70
2018-12-26T08:32:22.759Z,6.80
2018-12-26T08:35:05.066Z,6.80
2018-12-26T08:40:56.065Z,6.80
2018-12-26T08:43:45.606Z,6.80
2018-12-26T08:46:31.912Z,6.90
2018-12-26T08:52:22.321Z,6.90
2018-12-26T08:55:12.017Z,6.90
2018-12-26T08:57:54.277Z,6.90
2018-12-26T09:00:39.525Z,6.90
2018-12-26T09:03:29.385Z,6.90
2018-12-26T09:05:59.591Z,6.90
2018-12-26T09:08:49.001Z,6.90
2018-12-26T09:11:38.639Z,7.00
2018-12-26T09:14:21.434Z,7.00
2018-12-26T09:20:11.807Z,7.00
2018-12-26T09:23:01.158Z,7.10
2018-12-26T09:25:44.908Z,7.10
2018-12-26T09:28:34.234Z,7.10
2018-12-26T09:31:16.929Z,7.10
2018-12-26T09:37:08.970Z,7.10
2018-12-26T09:39:58.564Z,7.10
2018-12-26T09:42:40.243Z,7.10
2018-12-26T09:48:31.353Z,7.20
2018-12-26T09:54:22.334Z,7.20
2018-12-26T09:57:11.988Z,7.20
2018-12-26T09:59:54.616Z,7.30
2018-12-26T10:02:43.977Z,7.30
2018-12-26T10:05:26.270Z,7.30
2018-12-26T10:08:15.522Z,7.30
2018-12-26T10:10:58.462Z,7.30
2018-12-26T10:13:47.732Z,7.30
2018-12-26T10:16:31.477Z,7.30
2018-12-26T10:22:22.304Z,7.40
2018-12-26T10:28:13.482Z,7.40
2018-12-26T10:31:02.960Z,7.50
2018-12-26T10:33:45.742Z,7.50
2018-12-26T10:39:36.131Z,7.50
2018-12-26T10:45:27.618Z,7.50
2018-12-26T10:48:17.505Z,7.50
2018-12-26T10:50:59.974Z,7.50
2018-12-26T10:53:49.309Z,7.60
2018-12-26T10:56:33.366Z,7.60
2018-12-26T10:59:22.780Z,7.60
2018-12-26T11:04:59.619Z,7.70
2018-12-26T11:10:37.415Z,7.70
2018-12-26T11:16:14.396Z,7.80
2018-12-26T11:19:04.057Z,7.80
2018-12-26T11:21:46.610Z,7.80
2018-12-26T11:27:30.862Z,7.80
2018-12-26T11:33:08.574Z,7.80
2018-12-26T11:38:45.846Z,7.90
2018-12-26T11:41:35.513Z,7.90
2018-12-26T11:44:17.322Z,7.90
2018-12-26T11:47:06.727Z,7.90
2018-12-26T11:49:49.234Z,7.90
2018-12-26T11:52:19.704Z,7.90
2018-12-26T11:55:09.382Z,7.90
2018-12-26T11:57:58.727Z,7.90
2018-12-26T12:00:41.099Z,7.90
2018-12-26T12:06:19.445Z,7.90
2018-12-26T12:11:57.167Z,8.00
2018-12-26T12:14:46.705Z,8.00
2018-12-26T12:17:28.491Z,8.00
2018-12-26T12:19:58.779Z,8.00
2018-12-26T12:22:48.461Z,8.00
2018-12-26T12:28:25.294Z,8.00
2018-12-26T12:31:14.720Z,8.10
2018-12-26T12:33:56.586Z,8.10
2018-12-26T12:36:46.023Z,8.10
2018-12-26T12:39:16.273Z,8.10
2018-12-26T12:42:19.165Z,8.10
2018-12-26T12:44:49.260Z,8.00
2018-12-26T12:47:39.372Z,8.10
2018-12-26T12:50:23.474Z,8.10
2018-12-26T12:53:13.247Z,8.10
2018-12-26T12:55:56.963Z,8.10
2018-12-26T12:58:46.655Z,8.10
2018-12-26T13:01:28.540Z,8.10
2018-12-26T13:04:17.977Z,8.10
2018-12-26T13:07:01.738Z,8.20
2018-12-26T13:10:04.915Z,8.20
2018-12-26T13:12:24.333Z,8.20
2018-12-26T13:18:09.434Z,8.20
2018-12-26T13:20:51.832Z,8.20
2018-12-26T13:23:41.201Z,8.20
2018-12-26T13:26:24.808Z,8.20
2018-12-26T13:32:18.185Z,8.30
2018-12-26T13:35:07.833Z,8.40
2018-12-26T13:37:49.465Z,8.40
2018-12-26T13:40:38.753Z,8.40
2018-12-26T13:43:21.096Z,8.40
2018-12-26T13:49:11.729Z,8.40
2018-12-26T13:52:03.173Z,8.40
2018-12-26T13:54:45.602Z,8.50
2018-12-26T14:00:28.397Z,8.40
2018-12-26T14:03:10.996Z,8.50
2018-12-26T14:05:41.187Z,8.50
2018-12-26T14:08:30.886Z,8.50
2018-12-26T14:11:13.473Z,8.50
2018-12-26T14:14:03.167Z,8.50
2018-12-26T14:16:44.752Z,8.50
2018-12-26T14:19:34.462Z,8.50
2018-12-26T14:22:16.217Z,8.60
2018-12-26T14:27:54.803Z,8.60
2018-12-26T14:30:44.432Z,8.60
2018-12-26T14:33:26.840Z,8.60
2018-12-26T14:36:16.453Z,8.60
2018-12-26T14:41:56.987Z,8.60
2018-12-26T14:47:35.938Z,8.60
2018-12-26T14:50:26.043Z,8.60
2018-12-26T14:53:10.281Z,8.60
2018-12-26T14:55:59.693Z,8.60
2018-12-26T14:58:41.853Z,8.60
2018-12-26T15:01:31.342Z,8.60
2018-12-26T15:04:20.881Z,8.60
2018-12-26T15:07:02.759Z,8.70
2018-12-26T15:09:52.917Z,8.70
2018-12-26T15:12:35.134Z,8.70
2018-12-26T15:18:26.036Z,8.70
2018-12-26T15:21:16.140Z,8.60
2018-12-26T15:23:58.861Z,8.70
2018-12-26T15:29:57.052Z,8.60
2018-12-26T15:32:46.733Z,8.60
2018-12-26T15:41:07.213Z,8.60
2018-12-26T15:43:56.835Z,8.60
2018-12-26T15:46:39.080Z,8.60
2018-12-26T15:49:28.770Z,8.60
2018-12-26T15:52:11.047Z,8.60
2018-12-26T15:55:00.696Z,8.60
2018-12-26T15:57:43.087Z,8.60
2018-12-26T16:03:34.286Z,8.60
2018-12-26T16:09:24.815Z,8.70
2018-12-26T16:12:35.930Z,8.70
2018-12-26T16:15:18.623Z,8.70
2018-12-26T16:18:08.024Z,8.70
2018-12-26T16:20:50.296Z,8.70
2018-12-26T16:23:39.902Z,8.70
2018-12-26T16:32:01.082Z,8.70
2018-12-26T16:34:31.964Z,8.70
2018-12-26T16:37:21.947Z,8.70
2018-12-26T16:40:04.068Z,8.60
2018-12-26T16:42:53.725Z,8.60
2018-12-26T16:45:36.051Z,8.60
2018-12-26T16:48:26.488Z,8.60
2018-12-26T16:51:09.036Z,8.60
2018-12-26T16:53:58.697Z,8.60
2018-12-26T16:56:40.745Z,8.60
2018-12-26T16:59:30.462Z,8.60
2018-12-26T17:02:00.827Z,8.50
2018-12-26T17:07:38.254Z,8.60
2018-12-26T17:10:27.891Z,8.50
2018-12-26T17:13:11.147Z,8.50
2018-12-26T17:15:41.480Z,8.50
2018-12-26T17:18:31.387Z,8.50
2018-12-26T17:21:02.656Z,8.50
2018-12-26T17:23:52.758Z,8.50
2018-12-26T17:26:42.170Z,8.40
2018-12-26T17:32:32.662Z,8.50
2018-12-26T17:35:22.016Z,8.40
2018-12-26T17:38:03.833Z,8.40
2018-12-26T17:40:53.494Z,8.40
2018-12-26T17:43:35.538Z,8.40
2018-12-26T17:46:25.123Z,8.40
2018-12-26T17:52:24.015Z,8.30
2018-12-26T17:55:51.981Z,8.30
2018-12-26T17:58:36.395Z,8.30
2018-12-26T18:02:04.290Z,8.30
2018-12-26T18:04:47.002Z,8.30
2018-12-26T18:07:36.599Z,8.20
2018-12-26T18:10:20.783Z,8.20
2018-12-26T18:16:11.053Z,8.20
2018-12-26T18:19:01.183Z,8.20
2018-12-26T18:21:45.659Z,8.20
2018-12-26T18:24:37.165Z,8.10
2018-12-26T18:27:26.819Z,8.10
2018-12-26T18:30:10.228Z,8.20
2018-12-26T18:32:59.912Z,8.10
2018-12-26T18:35:44.284Z,8.20
2018-12-26T18:41:21.534Z,8.20
2018-12-26T18:44:11.228Z,8.20
2018-12-26T18:46:53.256Z,8.10
2018-12-26T18:49:42.891Z,8.10
2018-12-26T18:52:25.210Z,8.10
2018-12-26T18:55:14.826Z,8.20
2018-12-26T18:57:56.692Z,8.10
2018-12-26T19:00:46.742Z,8.10
2018-12-26T19:03:30.510Z,8.00
2018-12-26T19:09:10.794Z,8.10
2018-12-26T19:12:00.445Z,8.10
2018-12-26T19:14:42.984Z,8.00
2018-12-26T19:20:20.386Z,8.00
2018-12-26T19:23:11.810Z,8.00
2018-12-26T19:25:54.479Z,8.00
2018-12-26T19:28:44.141Z,8.00
2018-12-26T19:31:25.975Z,8.00
2018-12-26T19:34:17.463Z,8.00
2018-12-26T19:36:47.768Z,8.00
2018-12-26T19:39:39.182Z,8.00
2018-12-26T19:42:21.676Z,7.90
2018-12-26T19:45:11.422Z,7.90
2018-12-26T19:47:53.773Z,7.90
2018-12-26T19:50:43.382Z,8.00
2018-12-26T19:53:25.432Z,7.90
2018-12-26T19:56:17.132Z,7.90
2018-12-26T19:59:01.591Z,7.90
2018-12-26T20:01:51.260Z,7.90
2018-12-26T20:04:35.396Z,7.90
2018-12-26T20:10:12.535Z,7.80
2018-12-26T20:18:48.307Z,7.80
2018-12-26T20:24:44.428Z,7.80
2018-12-26T20:30:28.487Z,7.80
2018-12-26T20:33:10.772Z,7.80
2018-12-26T20:35:53.142Z,7.80
2018-12-26T20:38:42.537Z,7.80
2018-12-26T20:41:24.521Z,7.80
2018-12-26T20:44:14.163Z,7.70
2018-12-26T20:46:56.612Z,7.70
2018-12-26T20:52:48.421Z,7.80
2018-12-26T20:55:38.125Z,7.80
2018-12-26T20:58:21.563Z,7.70
2018-12-26T21:00:51.853Z,7.80
2018-12-26T21:03:41.485Z,7.80
2018-12-26T21:06:23.522Z,7.70
2018-12-26T21:12:14.746Z,7.70
2018-12-26T21:15:04.414Z,7.70
2018-12-26T21:17:46.725Z,7.70
2018-12-26T21:20:55.523Z,7.70
2018-12-26T21:23:47.171Z,7.70
2018-12-26T21:26:31.719Z,7.70
2018-12-26T21:29:21.039Z,7.70
2018-12-26T21:32:14.033Z,7.60
2018-12-26T21:34:41.563Z,7.70
2018-12-26T21:37:11.806Z,7.60
2018-12-26T21:42:49.738Z,7.70
2018-12-26T21:45:39.469Z,7.60
2018-12-26T21:48:21.658Z,7.60
2018-12-26T21:51:11.018Z,7.60
2018-12-26T21:53:53.592Z,7.60
2018-12-26T21:59:27.197Z,7.60
2018-12-26T22:02:22.376Z,7.60
2018-12-26T22:05:00.696Z,7.60
2018-12-26T22:10:57.261Z,7.50
2018-12-26T22:13:46.889Z,7.50
2018-12-26T22:16:38.821Z,7.50
2018-12-26T22:19:21.009Z,7.50
2018-12-26T22:22:33.087Z,7.50
2018-12-26T22:25:15.324Z,7.50
2018-12-26T22:28:04.978Z,7.50
2018-12-26T22:30:46.983Z,7.40
2018-12-26T22:33:38.679Z,7.40
2018-12-26T22:36:21.074Z,7.40
2018-12-26T22:39:10.708Z,7.40
2018-12-26T22:41:52.626Z,7.40
2018-12-26T22:44:44.015Z,7.50
2018-12-26T22:47:27.823Z,7.50
2018-12-26T22:50:19.455Z,7.50
2018-12-26T22:53:01.707Z,7.40
2018-12-26T22:58:54.338Z,7.40
2018-12-26T23:01:43.924Z,7.40
2018-12-26T23:04:26.592Z,7.30
2018-12-26T23:07:16.190Z,7.40
2018-12-26T23:09:58.600Z,7.40
2018-12-26T23:12:48.284Z,7.40
2018-12-26T23:15:30.840Z,7.40
2018-12-26T23:18:20.656Z,7.40
2018-12-26T23:21:10.342Z,7.40
2018-12-26T23:23:52.434Z,7.30
2018-12-26T23:29:33.274Z,7.30
2018-12-26T23:32:23.177Z,7.40
2018-12-26T23:35:05.900Z,7.30
2018-12-26T23:38:16.218Z,7.30
2018-12-26T23:43:41.709Z,7.30
2018-12-26T23:46:31.408Z,7.30
2018-12-26T23:49:12.958Z,7.30
2018-12-26T23:55:07.282Z,7.30
2018-12-26T23:57:56.965Z,7.20
